Oak Grove, Michigan
Current Conditions -  °F | °C
As of 6:15 AM on Monday 22 Dec 2014 (Local Time) from KOZW Reporting Station
Haze Haze  
Wind Chill: 18°   Ceiling: Unl
Heat Index: 26°   Visibility: 4mi
Dew Point: 24°   Wind: 7mph
Humidity: 95%   Direction: 110°ESE
Pressure: 30.07"   Gusts: NA
Location:  42.7°N, 83.91°W
Report Text: KOZW 221115Z AUTO 11006KT 4SM BR CLR M03/M04 A3007 RMK AO2 T10351042
Loading
Personal Weather Stations






























Interactive Weather Map New forecast layout! Learn more

10-Day Weather Forecast

Advertisements
Track Severe Weather on mobile